Terminal Aerodrome Forecast
Issued by NWS Twin Cities, MN

Home | Current Version | Previous Version | Text Only | Print | Product List | Glossary On
Versions: 1 2 3 4 5 6 7 8 9 10 11 12 13
000
FTUS43 KMPX 281138
TAFEAU
TAF
KEAU 281138Z 2812/2912 23008KT P6SM SCT100
     FM281800 27014G23KT P6SM SCT050
     FM290100 26007KT P6SM SCT050=

USA.gov is the U.S. government's official web portal to all federal, state and local government web resources and services.